sensor_id;sensor_type;location;lat;lon;timestamp;P1;durP1;ratioP1;P2;durP2;ratioP2
25657;SDS011;13517;59.320;18.042;2023-07-31T00:01:52;20.48;;;14.77;;
25657;SDS011;13517;59.320;18.042;2023-07-31T00:04:18;21.02;;;13.77;;
25657;SDS011;13517;59.320;18.042;2023-07-31T00:06:43;18.67;;;13.68;;
25657;SDS011;13517;59.320;18.042;2023-07-31T00:09:08;19.27;;;13.73;;
25657;SDS011;13517;59.320;18.042;2023-07-31T00:11:34;22.95;;;13.98;;
25657;SDS011;13517;59.320;18.042;2023-07-31T00:13:59;19.92;;;13.88;;
25657;SDS011;13517;59.320;18.042;2023-07-31T00:16:25;18.83;;;13.38;;
25657;SDS011;13517;59.320;18.042;2023-07-31T00:18:50;20.85;;;13.68;;
25657;SDS011;13517;59.320;18.042;2023-07-31T00:21:16;19.60;;;14.48;;
25657;SDS011;13517;59.320;18.042;2023-07-31T00:23:41;21.13;;;13.80;;
25657;SDS011;13517;59.320;18.042;2023-07-31T00:26:08;19.02;;;13.13;;
25657;SDS011;13517;59.320;18.042;2023-07-31T00:28:33;19.35;;;14.25;;
25657;SDS011;13517;59.320;18.042;2023-07-31T00:30:59;18.35;;;12.77;;
25657;SDS011;13517;59.320;18.042;2023-07-31T00:33:24;21.58;;;13.18;;
25657;SDS011;13517;59.320;18.042;2023-07-31T00:35:49;19.00;;;12.93;;
25657;SDS011;13517;59.320;18.042;2023-07-31T00:38:15;18.60;;;14.23;;
25657;SDS011;13517;59.320;18.042;2023-07-31T00:40:40;19.50;;;13.98;;
25657;SDS011;13517;59.320;18.042;2023-07-31T00:43:05;20.80;;;13.80;;
25657;SDS011;13517;59.320;18.042;2023-07-31T00:45:31;17.48;;;14.07;;
25657;SDS011;13517;59.320;18.042;2023-07-31T00:47:57;21.13;;;14.23;;
25657;SDS011;13517;59.320;18.042;2023-07-31T00:50:24;21.83;;;13.60;;
25657;SDS011;13517;59.320;18.042;2023-07-31T00:52:50;18.90;;;13.43;;
25657;SDS011;13517;59.320;18.042;2023-07-31T00:55:16;20.30;;;13.27;;
25657;SDS011;13517;59.320;18.042;2023-07-31T00:57:42;19.90;;;14.40;;
25657;SDS011;13517;59.320;18.042;2023-07-31T01:00:08;20.13;;;15.05;;
25657;SDS011;13517;59.320;18.042;2023-07-31T01:02:34;18.73;;;15.05;;
25657;SDS011;13517;59.320;18.042;2023-07-31T01:05:00;21.83;;;14.68;;
25657;SDS011;13517;59.320;18.042;2023-07-31T01:07:31;23.95;;;14.05;;
25657;SDS011;13517;59.320;18.042;2023-07-31T01:12:48;18.58;;;13.93;;
25657;SDS011;13517;59.320;18.042;2023-07-31T01:15:16;19.25;;;14.50;;
25657;SDS011;13517;59.320;18.042;2023-07-31T01:17:42;18.42;;;13.70;;
25657;SDS011;13517;59.320;18.042;2023-07-31T01:20:26;16.73;;;13.98;;
25657;SDS011;13517;59.320;18.042;2023-07-31T01:31:10;15.70;;;12.00;;
25657;SDS011;13517;59.320;18.042;2023-07-31T01:33:39;16.13;;;12.75;;
25657;SDS011;13517;59.320;18.042;2023-07-31T01:36:05;18.38;;;13.68;;
25657;SDS011;13517;59.320;18.042;2023-07-31T01:38:32;21.02;;;12.73;;
25657;SDS011;13517;59.320;18.042;2023-07-31T01:40:57;20.58;;;13.18;;
25657;SDS011;13517;59.320;18.042;2023-07-31T01:43:23;18.95;;;13.25;;
25657;SDS011;13517;59.320;18.042;2023-07-31T01:45:49;19.77;;;13.70;;
25657;SDS011;13517;59.320;18.042;2023-07-31T01:48:14;18.85;;;13.43;;
25657;SDS011;13517;59.320;18.042;2023-07-31T01:50:40;19.42;;;12.98;;
25657;SDS011;13517;59.320;18.042;2023-07-31T01:53:05;19.67;;;14.10;;
25657;SDS011;13517;59.320;18.042;2023-07-31T01:55:31;17.35;;;12.50;;
25657;SDS011;13517;59.320;18.042;2023-07-31T01:57:56;17.60;;;13.10;;
25657;SDS011;13517;59.320;18.042;2023-07-31T02:00:22;19.95;;;13.75;;
25657;SDS011;13517;59.320;18.042;2023-07-31T02:02:47;16.80;;;13.15;;
25657;SDS011;13517;59.320;18.042;2023-07-31T02:05:12;16.38;;;13.32;;
25657;SDS011;13517;59.320;18.042;2023-07-31T02:07:38;18.15;;;13.18;;
25657;SDS011;13517;59.320;18.042;2023-07-31T02:10:03;20.08;;;13.88;;
25657;SDS011;13517;59.320;18.042;2023-07-31T02:12:29;17.02;;;12.65;;
25657;SDS011;13517;59.320;18.042;2023-07-31T02:14:58;20.88;;;13.43;;
25657;SDS011;13517;59.320;18.042;2023-07-31T02:17:25;15.40;;;12.02;;
25657;SDS011;13517;59.320;18.042;2023-07-31T02:19:51;16.88;;;12.48;;
25657;SDS011;13517;59.320;18.042;2023-07-31T02:22:16;14.07;;;11.52;;
25657;SDS011;13517;59.320;18.042;2023-07-31T02:24:41;16.23;;;13.43;;
25657;SDS011;13517;59.320;18.042;2023-07-31T02:27:07;16.65;;;12.82;;
25657;SDS011;13517;59.320;18.042;2023-07-31T02:29:32;16.85;;;12.75;;
25657;SDS011;13517;59.320;18.042;2023-07-31T02:31:58;14.07;;;11.88;;
25657;SDS011;13517;59.320;18.042;2023-07-31T02:34:23;14.52;;;11.75;;
25657;SDS011;13517;59.320;18.042;2023-07-31T02:36:48;18.70;;;11.82;;
25657;SDS011;13517;59.320;18.042;2023-07-31T02:39:14;12.98;;;10.70;;
25657;SDS011;13517;59.320;18.042;2023-07-31T02:41:39;14.48;;;9.45;;
25657;SDS011;13517;59.320;18.042;2023-07-31T02:44:05;11.88;;;9.60;;
25657;SDS011;13517;59.320;18.042;2023-07-31T02:46:31;13.60;;;10.88;;
25657;SDS011;13517;59.320;18.042;2023-07-31T02:48:57;12.20;;;10.60;;
25657;SDS011;13517;59.320;18.042;2023-07-31T02:51:22;16.88;;;11.18;;
25657;SDS011;13517;59.320;18.042;2023-07-31T02:53:48;17.38;;;11.07;;
25657;SDS011;13517;59.320;18.042;2023-07-31T02:56:13;15.85;;;11.35;;
25657;SDS011;13517;59.320;18.042;2023-07-31T02:58:39;16.52;;;10.80;;
25657;SDS011;13517;59.320;18.042;2023-07-31T03:01:04;13.82;;;10.35;;
25657;SDS011;13517;59.320;18.042;2023-07-31T03:03:30;16.20;;;10.20;;
25657;SDS011;13517;59.320;18.042;2023-07-31T03:05:55;13.65;;;11.02;;
25657;SDS011;13517;59.320;18.042;2023-07-31T03:08:21;22.55;;;12.07;;
25657;SDS011;13517;59.320;18.042;2023-07-31T03:10:46;15.73;;;11.27;;
25657;SDS011;13517;59.320;18.042;2023-07-31T03:13:12;15.65;;;10.75;;
25657;SDS011;13517;59.320;18.042;2023-07-31T03:15:37;12.57;;;11.07;;
25657;SDS011;13517;59.320;18.042;2023-07-31T03:18:02;16.63;;;11.30;;
25657;SDS011;13517;59.320;18.042;2023-07-31T03:20:28;14.10;;;10.98;;
25657;SDS011;13517;59.320;18.042;2023-07-31T03:22:53;15.13;;;10.80;;
25657;SDS011;13517;59.320;18.042;2023-07-31T03:25:19;15.38;;;12.15;;
25657;SDS011;13517;59.320;18.042;2023-07-31T03:27:44;18.77;;;12.82;;
25657;SDS011;13517;59.320;18.042;2023-07-31T03:30:09;16.45;;;12.38;;
25657;SDS011;13517;59.320;18.042;2023-07-31T03:32:35;16.08;;;12.38;;
25657;SDS011;13517;59.320;18.042;2023-07-31T03:35:01;15.95;;;11.85;;
25657;SDS011;13517;59.320;18.042;2023-07-31T03:37:26;20.27;;;12.68;;
25657;SDS011;13517;59.320;18.042;2023-07-31T03:39:51;15.07;;;12.20;;
25657;SDS011;13517;59.320;18.042;2023-07-31T03:42:17;17.85;;;13.30;;
25657;SDS011;13517;59.320;18.042;2023-07-31T03:44:42;20.75;;;13.38;;
25657;SDS011;13517;59.320;18.042;2023-07-31T03:47:08;18.33;;;12.35;;
25657;SDS011;13517;59.320;18.042;2023-07-31T03:49:33;14.88;;;12.43;;
25657;SDS011;13517;59.320;18.042;2023-07-31T03:51:58;19.92;;;12.18;;
25657;SDS011;13517;59.320;18.042;2023-07-31T03:54:24;14.20;;;11.70;;
25657;SDS011;13517;59.320;18.042;2023-07-31T03:56:49;17.52;;;12.27;;
25657;SDS011;13517;59.320;18.042;2023-07-31T03:59:15;15.65;;;12.07;;
25657;SDS011;13517;59.320;18.042;2023-07-31T04:01:40;16.80;;;13.43;;
25657;SDS011;13517;59.320;18.042;2023-07-31T04:04:05;17.33;;;13.63;;
25657;SDS011;13517;59.320;18.042;2023-07-31T04:06:31;17.00;;;12.93;;
25657;SDS011;13517;59.320;18.042;2023-07-31T04:08:56;21.33;;;14.38;;
25657;SDS011;13517;59.320;18.042;2023-07-31T04:11:22;19.95;;;13.30;;
25657;SDS011;13517;59.320;18.042;2023-07-31T04:13:47;17.23;;;12.55;;
25657;SDS011;13517;59.320;18.042;2023-07-31T04:16:13;20.50;;;13.95;;
25657;SDS011;13517;59.320;18.042;2023-07-31T04:18:38;17.63;;;13.60;;
25657;SDS011;13517;59.320;18.042;2023-07-31T04:21:03;20.45;;;14.13;;
25657;SDS011;13517;59.320;18.042;2023-07-31T04:23:29;19.80;;;13.43;;
25657;SDS011;13517;59.320;18.042;2023-07-31T04:25:54;17.52;;;13.30;;
25657;SDS011;13517;59.320;18.042;2023-07-31T04:28:20;24.52;;;14.25;;
25657;SDS011;13517;59.320;18.042;2023-07-31T04:30:45;14.57;;;12.82;;
25657;SDS011;13517;59.320;18.042;2023-07-31T04:33:10;15.35;;;11.85;;
25657;SDS011;13517;59.320;18.042;2023-07-31T04:35:36;18.75;;;13.02;;
25657;SDS011;13517;59.320;18.042;2023-07-31T04:38:01;18.95;;;12.55;;
25657;SDS011;13517;59.320;18.042;2023-07-31T04:40:27;16.58;;;12.02;;
25657;SDS011;13517;59.320;18.042;2023-07-31T04:42:52;17.45;;;12.48;;
25657;SDS011;13517;59.320;18.042;2023-07-31T04:45:18;16.83;;;12.23;;
25657;SDS011;13517;59.320;18.042;2023-07-31T04:47:43;18.40;;;12.45;;
25657;SDS011;13517;59.320;18.042;2023-07-31T04:50:09;19.65;;;13.05;;
25657;SDS011;13517;59.320;18.042;2023-07-31T04:52:34;22.63;;;13.90;;
25657;SDS011;13517;59.320;18.042;2023-07-31T04:55:00;15.48;;;12.05;;
25657;SDS011;13517;59.320;18.042;2023-07-31T04:57:25;15.15;;;11.75;;
25657;SDS011;13517;59.320;18.042;2023-07-31T04:59:51;20.15;;;11.48;;
25657;SDS011;13517;59.320;18.042;2023-07-31T05:02:16;12.52;;;11.00;;
25657;SDS011;13517;59.320;18.042;2023-07-31T05:04:42;13.63;;;10.88;;
25657;SDS011;13517;59.320;18.042;2023-07-31T05:07:07;15.63;;;11.50;;
25657;SDS011;13517;59.320;18.042;2023-07-31T05:09:32;19.60;;;12.48;;
25657;SDS011;13517;59.320;18.042;2023-07-31T05:11:59;16.10;;;12.18;;
25657;SDS011;13517;59.320;18.042;2023-07-31T05:14:25;22.52;;;13.05;;
25657;SDS011;13517;59.320;18.042;2023-07-31T05:16:51;16.20;;;12.27;;
25657;SDS011;13517;59.320;18.042;2023-07-31T05:19:16;14.57;;;11.55;;
25657;SDS011;13517;59.320;18.042;2023-07-31T05:21:42;16.58;;;11.18;;
25657;SDS011;13517;59.320;18.042;2023-07-31T05:24:07;11.30;;;8.13;;
25657;SDS011;13517;59.320;18.042;2023-07-31T05:26:33;14.23;;;10.77;;
25657;SDS011;13517;59.320;18.042;2023-07-31T05:28:58;16.67;;;9.73;;
25657;SDS011;13517;59.320;18.042;2023-07-31T05:31:24;15.68;;;10.70;;
25657;SDS011;13517;59.320;18.042;2023-07-31T05:33:49;17.52;;;10.95;;
25657;SDS011;13517;59.320;18.042;2023-07-31T05:36:15;17.15;;;10.50;;
25657;SDS011;13517;59.320;18.042;2023-07-31T05:38:41;19.67;;;11.00;;
25657;SDS011;13517;59.320;18.042;2023-07-31T05:41:09;14.77;;;10.43;;
25657;SDS011;13517;59.320;18.042;2023-07-31T05:43:34;15.15;;;10.32;;
25657;SDS011;13517;59.320;18.042;2023-07-31T05:46:01;16.15;;;10.40;;
25657;SDS011;13517;59.320;18.042;2023-07-31T05:48:26;13.27;;;9.93;;
25657;SDS011;13517;59.320;18.042;2023-07-31T05:50:52;12.63;;;9.13;;
25657;SDS011;13517;59.320;18.042;2023-07-31T05:53:17;15.85;;;10.70;;
25657;SDS011;13517;59.320;18.042;2023-07-31T05:55:43;16.13;;;11.18;;
25657;SDS011;13517;59.320;18.042;2023-07-31T05:58:08;15.05;;;11.77;;
25657;SDS011;13517;59.320;18.042;2023-07-31T06:00:34;18.52;;;14.55;;
25657;SDS011;13517;59.320;18.042;2023-07-31T06:02:59;19.85;;;14.77;;
25657;SDS011;13517;59.320;18.042;2023-07-31T06:05:24;17.02;;;14.00;;
25657;SDS011;13517;59.320;18.042;2023-07-31T06:07:51;20.42;;;14.25;;
25657;SDS011;13517;59.320;18.042;2023-07-31T06:10:16;16.92;;;13.90;;
25657;SDS011;13517;59.320;18.042;2023-07-31T06:12:42;21.77;;;14.73;;
25657;SDS011;13517;59.320;18.042;2023-07-31T06:15:07;18.58;;;14.13;;
25657;SDS011;13517;59.320;18.042;2023-07-31T06:17:33;15.13;;;12.48;;
25657;SDS011;13517;59.320;18.042;2023-07-31T06:19:58;14.80;;;13.23;;
25657;SDS011;13517;59.320;18.042;2023-07-31T06:22:23;16.77;;;12.98;;
25657;SDS011;13517;59.320;18.042;2023-07-31T06:24:50;16.75;;;12.05;;
25657;SDS011;13517;59.320;18.042;2023-07-31T06:27:16;16.15;;;13.75;;
25657;SDS011;13517;59.320;18.042;2023-07-31T06:29:41;16.80;;;13.50;;
25657;SDS011;13517;59.320;18.042;2023-07-31T06:32:07;16.88;;;11.70;;
25657;SDS011;13517;59.320;18.042;2023-07-31T06:34:33;17.20;;;11.43;;
25657;SDS011;13517;59.320;18.042;2023-07-31T06:36:58;16.10;;;11.45;;
25657;SDS011;13517;59.320;18.042;2023-07-31T06:39:23;15.63;;;10.52;;
25657;SDS011;13517;59.320;18.042;2023-07-31T06:41:49;16.73;;;11.80;;
25657;SDS011;13517;59.320;18.042;2023-07-31T06:44:15;27.88;;;11.88;;
25657;SDS011;13517;59.320;18.042;2023-07-31T06:46:42;16.05;;;10.45;;
25657;SDS011;13517;59.320;18.042;2023-07-31T06:49:07;14.38;;;8.98;;
25657;SDS011;13517;59.320;18.042;2023-07-31T06:51:33;11.05;;;7.82;;
25657;SDS011;13517;59.320;18.042;2023-07-31T06:53:58;10.77;;;7.38;;
25657;SDS011;13517;59.320;18.042;2023-07-31T06:56:24;10.68;;;7.07;;
25657;SDS011;13517;59.320;18.042;2023-07-31T06:58:51;13.18;;;6.72;;
25657;SDS011;13517;59.320;18.042;2023-07-31T07:01:16;10.40;;;6.22;;
25657;SDS011;13517;59.320;18.042;2023-07-31T07:03:41;9.30;;;5.05;;
25657;SDS011;13517;59.320;18.042;2023-07-31T07:06:07;15.45;;;6.05;;
25657;SDS011;13517;59.320;18.042;2023-07-31T07:08:32;13.07;;;6.93;;
25657;SDS011;13517;59.320;18.042;2023-07-31T07:10:58;19.27;;;7.00;;
25657;SDS011;13517;59.320;18.042;2023-07-31T07:13:23;17.83;;;7.35;;
25657;SDS011;13517;59.320;18.042;2023-07-31T07:15:49;16.65;;;7.28;;
25657;SDS011;13517;59.320;18.042;2023-07-31T07:18:14;15.50;;;7.68;;
25657;SDS011;13517;59.320;18.042;2023-07-31T07:20:40;15.48;;;7.65;;
25657;SDS011;13517;59.320;18.042;2023-07-31T07:23:06;16.17;;;7.57;;
25657;SDS011;13517;59.320;18.042;2023-07-31T07:25:31;20.95;;;7.40;;
25657;SDS011;13517;59.320;18.042;2023-07-31T07:27:56;17.75;;;7.85;;
25657;SDS011;13517;59.320;18.042;2023-07-31T07:30:22;15.02;;;7.63;;
25657;SDS011;13517;59.320;18.042;2023-07-31T07:32:50;15.85;;;8.07;;
25657;SDS011;13517;59.320;18.042;2023-07-31T07:35:15;17.50;;;7.93;;
25657;SDS011;13517;59.320;18.042;2023-07-31T07:37:41;12.40;;;7.70;;
25657;SDS011;13517;59.320;18.042;2023-07-31T07:40:06;15.45;;;8.48;;
25657;SDS011;13517;59.320;18.042;2023-07-31T07:42:32;13.65;;;8.13;;
25657;SDS011;13517;59.320;18.042;2023-07-31T07:44:57;14.95;;;7.65;;
25657;SDS011;13517;59.320;18.042;2023-07-31T07:47:23;15.30;;;7.70;;
25657;SDS011;13517;59.320;18.042;2023-07-31T07:49:48;13.75;;;8.25;;
25657;SDS011;13517;59.320;18.042;2023-07-31T07:52:13;13.70;;;8.10;;
25657;SDS011;13517;59.320;18.042;2023-07-31T07:54:39;21.02;;;8.80;;
25657;SDS011;13517;59.320;18.042;2023-07-31T07:57:04;19.33;;;9.50;;
25657;SDS011;13517;59.320;18.042;2023-07-31T07:59:30;13.38;;;8.40;;
25657;SDS011;13517;59.320;18.042;2023-07-31T08:01:55;17.00;;;8.57;;
25657;SDS011;13517;59.320;18.042;2023-07-31T08:04:20;19.35;;;9.80;;
25657;SDS011;13517;59.320;18.042;2023-07-31T08:06:46;14.20;;;9.38;;
25657;SDS011;13517;59.320;18.042;2023-07-31T08:09:11;21.40;;;10.77;;
25657;SDS011;13517;59.320;18.042;2023-07-31T08:11:37;15.68;;;9.45;;
25657;SDS011;13517;59.320;18.042;2023-07-31T08:14:02;17.08;;;9.55;;
25657;SDS011;13517;59.320;18.042;2023-07-31T08:16:27;19.60;;;9.50;;
25657;SDS011;13517;59.320;18.042;2023-07-31T08:18:53;16.63;;;8.90;;
25657;SDS011;13517;59.320;18.042;2023-07-31T08:21:18;22.27;;;9.65;;
25657;SDS011;13517;59.320;18.042;2023-07-31T08:23:44;15.60;;;8.93;;
25657;SDS011;13517;59.320;18.042;2023-07-31T08:26:16;15.50;;;8.70;;
25657;SDS011;13517;59.320;18.042;2023-07-31T08:28:42;26.85;;;9.55;;
25657;SDS011;13517;59.320;18.042;2023-07-31T08:31:07;25.75;;;9.70;;
25657;SDS011;13517;59.320;18.042;2023-07-31T08:33:33;18.88;;;9.38;;
25657;SDS011;13517;59.320;18.042;2023-07-31T08:35:58;15.20;;;7.57;;
25657;SDS011;13517;59.320;18.042;2023-07-31T08:38:25;22.13;;;8.77;;
25657;SDS011;13517;59.320;18.042;2023-07-31T08:40:51;23.33;;;9.20;;
25657;SDS011;13517;59.320;18.042;2023-07-31T08:43:16;14.82;;;7.85;;
25657;SDS011;13517;59.320;18.042;2023-07-31T08:45:43;13.63;;;8.25;;
25657;SDS011;13517;59.320;18.042;2023-07-31T08:48:09;16.23;;;7.60;;
25657;SDS011;13517;59.320;18.042;2023-07-31T08:50:36;20.27;;;9.40;;
25657;SDS011;13517;59.320;18.042;2023-07-31T08:53:03;18.67;;;9.68;;
25657;SDS011;13517;59.320;18.042;2023-07-31T08:55:28;18.00;;;9.93;;
25657;SDS011;13517;59.320;18.042;2023-07-31T08:57:54;24.75;;;10.68;;
25657;SDS011;13517;59.320;18.042;2023-07-31T09:00:21;25.38;;;10.45;;
25657;SDS011;13517;59.320;18.042;2023-07-31T09:05:28;10.77;;;6.95;;
25657;SDS011;13517;59.320;18.042;2023-07-31T09:07:55;11.85;;;5.95;;
25657;SDS011;13517;59.320;18.042;2023-07-31T09:10:22;9.13;;;6.22;;
25657;SDS011;13517;59.320;18.042;2023-07-31T09:12:48;9.02;;;5.47;;
25657;SDS011;13517;59.320;18.042;2023-07-31T09:15:14;17.88;;;6.30;;
25657;SDS011;13517;59.320;18.042;2023-07-31T09:17:40;10.13;;;4.88;;
25657;SDS011;13517;59.320;18.042;2023-07-31T09:20:38;9.18;;;5.18;;
25657;SDS011;13517;59.320;18.042;2023-07-31T09:23:04;8.77;;;4.18;;
25657;SDS011;13517;59.320;18.042;2023-07-31T09:25:32;15.73;;;5.38;;
25657;SDS011;13517;59.320;18.042;2023-07-31T09:27:58;7.10;;;4.68;;
25657;SDS011;13517;59.320;18.042;2023-07-31T09:30:24;7.90;;;4.03;;
25657;SDS011;13517;59.320;18.042;2023-07-31T09:32:51;8.38;;;3.80;;
25657;SDS011;13517;59.320;18.042;2023-07-31T09:35:31;11.05;;;4.05;;
25657;SDS011;13517;59.320;18.042;2023-07-31T09:37:59;7.25;;;3.55;;
25657;SDS011;13517;59.320;18.042;2023-07-31T09:40:29;7.32;;;3.47;;
25657;SDS011;13517;59.320;18.042;2023-07-31T09:42:59;10.88;;;3.38;;
25657;SDS011;13517;59.320;18.042;2023-07-31T09:45:26;7.32;;;3.40;;
25657;SDS011;13517;59.320;18.042;2023-07-31T09:47:52;8.27;;;3.20;;
25657;SDS011;13517;59.320;18.042;2023-07-31T09:50:20;9.02;;;3.78;;
25657;SDS011;13517;59.320;18.042;2023-07-31T09:52:47;5.47;;;2.40;;
25657;SDS011;13517;59.320;18.042;2023-07-31T09:55:12;6.60;;;2.97;;
25657;SDS011;13517;59.320;18.042;2023-07-31T09:57:41;5.43;;;2.92;;
25657;SDS011;13517;59.320;18.042;2023-07-31T10:00:11;8.03;;;3.37;;
25657;SDS011;13517;59.320;18.042;2023-07-31T10:02:38;7.75;;;3.15;;
25657;SDS011;13517;59.320;18.042;2023-07-31T10:05:05;9.80;;;3.00;;
25657;SDS011;13517;59.320;18.042;2023-07-31T10:07:34;4.72;;;2.72;;
25657;SDS011;13517;59.320;18.042;2023-07-31T10:10:03;6.53;;;3.20;;
25657;SDS011;13517;59.320;18.042;2023-07-31T10:12:29;5.35;;;2.97;;
25657;SDS011;13517;59.320;18.042;2023-07-31T10:14:57;6.60;;;2.78;;
25657;SDS011;13517;59.320;18.042;2023-07-31T10:17:24;6.28;;;2.70;;
25657;SDS011;13517;59.320;18.042;2023-07-31T10:19:51;7.45;;;3.75;;
25657;SDS011;13517;59.320;18.042;2023-07-31T10:22:16;7.80;;;2.88;;
25657;SDS011;13517;59.320;18.042;2023-07-31T10:24:43;7.28;;;3.15;;
25657;SDS011;13517;59.320;18.042;2023-07-31T10:27:10;9.85;;;2.95;;
25657;SDS011;13517;59.320;18.042;2023-07-31T10:29:36;9.05;;;3.13;;
25657;SDS011;13517;59.320;18.042;2023-07-31T10:32:04;4.25;;;2.28;;
25657;SDS011;13517;59.320;18.042;2023-07-31T10:34:33;8.77;;;2.08;;
25657;SDS011;13517;59.320;18.042;2023-07-31T10:39:47;5.72;;;2.28;;
25657;SDS011;13517;59.320;18.042;2023-07-31T10:42:51;7.45;;;2.83;;
25657;SDS011;13517;59.320;18.042;2023-07-31T10:45:24;6.75;;;2.33;;
25657;SDS011;13517;59.320;18.042;2023-07-31T10:48:03;6.32;;;2.50;;
25657;SDS011;13517;59.320;18.042;2023-07-31T10:50:30;4.55;;;2.58;;
25657;SDS011;13517;59.320;18.042;2023-07-31T10:53:00;7.88;;;2.17;;
25657;SDS011;13517;59.320;18.042;2023-07-31T10:55:33;9.93;;;2.50;;
25657;SDS011;13517;59.320;18.042;2023-07-31T10:58:11;7.53;;;1.98;;
25657;SDS011;13517;59.320;18.042;2023-07-31T11:00:38;4.55;;;2.17;;
25657;SDS011;13517;59.320;18.042;2023-07-31T11:03:08;8.20;;;2.58;;
25657;SDS011;13517;59.320;18.042;2023-07-31T11:10:50;8.23;;;2.80;;
25657;SDS011;13517;59.320;18.042;2023-07-31T11:13:41;6.80;;;2.60;;
25657;SDS011;13517;59.320;18.042;2023-07-31T11:16:22;9.48;;;2.58;;
25657;SDS011;13517;59.320;18.042;2023-07-31T11:18:49;6.30;;;2.47;;
25657;SDS011;13517;59.320;18.042;2023-07-31T11:21:17;13.38;;;2.55;;
25657;SDS011;13517;59.320;18.042;2023-07-31T11:23:48;5.57;;;2.88;;
25657;SDS011;13517;59.320;18.042;2023-07-31T11:26:14;2.60;;;1.83;;
25657;SDS011;13517;59.320;18.042;2023-07-31T11:28:40;7.40;;;2.05;;
25657;SDS011;13517;59.320;18.042;2023-07-31T11:31:09;3.63;;;2.58;;
25657;SDS011;13517;59.320;18.042;2023-07-31T11:33:35;4.55;;;2.50;;
25657;SDS011;13517;59.320;18.042;2023-07-31T11:36:00;4.75;;;2.55;;
25657;SDS011;13517;59.320;18.042;2023-07-31T11:38:29;7.47;;;2.70;;
25657;SDS011;13517;59.320;18.042;2023-07-31T11:40:58;8.40;;;3.30;;
25657;SDS011;13517;59.320;18.042;2023-07-31T11:43:27;12.70;;;2.90;;
25657;SDS011;13517;59.320;18.042;2023-07-31T11:45:57;10.73;;;3.22;;
25657;SDS011;13517;59.320;18.042;2023-07-31T11:50:52;14.98;;;3.05;;
25657;SDS011;13517;59.320;18.042;2023-07-31T11:53:21;6.18;;;2.95;;
25657;SDS011;13517;59.320;18.042;2023-07-31T11:55:52;10.25;;;3.35;;
25657;SDS011;13517;59.320;18.042;2023-07-31T11:58:17;5.47;;;3.08;;
25657;SDS011;13517;59.320;18.042;2023-07-31T12:00:44;5.10;;;3.10;;
25657;SDS011;13517;59.320;18.042;2023-07-31T12:03:11;6.28;;;2.45;;
25657;SDS011;13517;59.320;18.042;2023-07-31T12:05:37;5.38;;;3.10;;
25657;SDS011;13517;59.320;18.042;2023-07-31T12:08:05;11.40;;;3.60;;
25657;SDS011;13517;59.320;18.042;2023-07-31T12:10:36;10.63;;;3.67;;
25657;SDS011;13517;59.320;18.042;2023-07-31T12:13:03;17.42;;;4.95;;
25657;SDS011;13517;59.320;18.042;2023-07-31T12:15:34;27.45;;;5.32;;
25657;SDS011;13517;59.320;18.042;2023-07-31T12:18:03;7.75;;;4.13;;
25657;SDS011;13517;59.320;18.042;2023-07-31T12:20:30;10.25;;;4.25;;
25657;SDS011;13517;59.320;18.042;2023-07-31T12:22:56;10.35;;;4.65;;
25657;SDS011;13517;59.320;18.042;2023-07-31T12:25:23;11.13;;;5.10;;
25657;SDS011;13517;59.320;18.042;2023-07-31T12:27:53;8.07;;;4.40;;
25657;SDS011;13517;59.320;18.042;2023-07-31T12:30:34;8.77;;;4.03;;
25657;SDS011;13517;59.320;18.042;2023-07-31T12:33:15;5.18;;;3.92;;
25657;SDS011;13517;59.320;18.042;2023-07-31T12:35:45;7.03;;;3.88;;
25657;SDS011;13517;59.320;18.042;2023-07-31T12:38:12;8.77;;;4.47;;
25657;SDS011;13517;59.320;18.042;2023-07-31T12:40:41;5.07;;;2.97;;
25657;SDS011;13517;59.320;18.042;2023-07-31T12:43:07;5.15;;;3.13;;
25657;SDS011;13517;59.320;18.042;2023-07-31T12:45:33;7.82;;;3.95;;
25657;SDS011;13517;59.320;18.042;2023-07-31T12:48:00;6.60;;;3.83;;
25657;SDS011;13517;59.320;18.042;2023-07-31T12:50:26;7.65;;;3.92;;
25657;SDS011;13517;59.320;18.042;2023-07-31T12:52:55;5.78;;;3.65;;
25657;SDS011;13517;59.320;18.042;2023-07-31T12:55:21;6.32;;;3.72;;
25657;SDS011;13517;59.320;18.042;2023-07-31T12:57:47;3.45;;;2.70;;
25657;SDS011;13517;59.320;18.042;2023-07-31T13:00:12;9.18;;;3.22;;
25657;SDS011;13517;59.320;18.042;2023-07-31T13:02:38;4.63;;;3.17;;
25657;SDS011;13517;59.320;18.042;2023-07-31T13:05:04;4.03;;;2.90;;
25657;SDS011;13517;59.320;18.042;2023-07-31T13:07:30;7.07;;;2.72;;
25657;SDS011;13517;59.320;18.042;2023-07-31T13:09:56;6.80;;;2.95;;
25657;SDS011;13517;59.320;18.042;2023-07-31T13:12:22;4.93;;;3.00;;
25657;SDS011;13517;59.320;18.042;2023-07-31T13:14:47;6.70;;;2.95;;
25657;SDS011;13517;59.320;18.042;2023-07-31T13:17:12;5.30;;;2.70;;
25657;SDS011;13517;59.320;18.042;2023-07-31T13:19:38;6.05;;;2.60;;
25657;SDS011;13517;59.320;18.042;2023-07-31T13:22:03;6.00;;;2.75;;
25657;SDS011;13517;59.320;18.042;2023-07-31T13:24:29;3.80;;;2.80;;
25657;SDS011;13517;59.320;18.042;2023-07-31T13:26:55;5.25;;;2.83;;
25657;SDS011;13517;59.320;18.042;2023-07-31T13:29:20;8.13;;;3.00;;
25657;SDS011;13517;59.320;18.042;2023-07-31T13:31:46;3.83;;;2.70;;
25657;SDS011;13517;59.320;18.042;2023-07-31T13:34:12;5.30;;;2.55;;
25657;SDS011;13517;59.320;18.042;2023-07-31T13:36:37;5.55;;;2.65;;
25657;SDS011;13517;59.320;18.042;2023-07-31T13:39:03;5.43;;;2.40;;
25657;SDS011;13517;59.320;18.042;2023-07-31T13:41:28;7.85;;;2.60;;
25657;SDS011;13517;59.320;18.042;2023-07-31T13:43:54;4.75;;;2.50;;
25657;SDS011;13517;59.320;18.042;2023-07-31T13:46:19;3.92;;;2.25;;
25657;SDS011;13517;59.320;18.042;2023-07-31T13:48:45;6.63;;;2.80;;
25657;SDS011;13517;59.320;18.042;2023-07-31T13:51:10;4.15;;;2.50;;
25657;SDS011;13517;59.320;18.042;2023-07-31T13:53:35;5.63;;;2.35;;
25657;SDS011;13517;59.320;18.042;2023-07-31T13:56:01;3.50;;;2.30;;
25657;SDS011;13517;59.320;18.042;2023-07-31T13:58:27;4.65;;;2.70;;
25657;SDS011;13517;59.320;18.042;2023-07-31T14:00:52;7.47;;;2.78;;
25657;SDS011;13517;59.320;18.042;2023-07-31T14:03:17;5.20;;;2.42;;
25657;SDS011;13517;59.320;18.042;2023-07-31T14:05:43;6.45;;;2.42;;
25657;SDS011;13517;59.320;18.042;2023-07-31T14:08:08;5.05;;;2.83;;
25657;SDS011;13517;59.320;18.042;2023-07-31T14:10:33;3.55;;;2.45;;
25657;SDS011;13517;59.320;18.042;2023-07-31T14:12:59;6.88;;;2.83;;
25657;SDS011;13517;59.320;18.042;2023-07-31T14:15:24;8.98;;;3.42;;
25657;SDS011;13517;59.320;18.042;2023-07-31T14:17:50;6.38;;;3.10;;
25657;SDS011;13517;59.320;18.042;2023-07-31T14:20:15;5.97;;;3.35;;
25657;SDS011;13517;59.320;18.042;2023-07-31T14:22:40;7.20;;;4.03;;
25657;SDS011;13517;59.320;18.042;2023-07-31T14:25:06;11.40;;;4.45;;
25657;SDS011;13517;59.320;18.042;2023-07-31T14:27:32;6.93;;;4.00;;
25657;SDS011;13517;59.320;18.042;2023-07-31T14:29:58;5.50;;;3.88;;
25657;SDS011;13517;59.320;18.042;2023-07-31T14:32:23;8.93;;;5.05;;
25657;SDS011;13517;59.320;18.042;2023-07-31T14:34:50;7.20;;;4.78;;
25657;SDS011;13517;59.320;18.042;2023-07-31T14:37:16;7.68;;;4.90;;
25657;SDS011;13517;59.320;18.042;2023-07-31T14:39:41;7.30;;;4.65;;
25657;SDS011;13517;59.320;18.042;2023-07-31T14:42:06;8.65;;;4.30;;